Navajo State Park, Colorado
Current Conditions -  °F | °C
As of 9:55 PM on Sunday 21 Dec 2014 (Local Time) from KPSO Reporting Station
Overcast Overcast  
Wind Chill: 30°   Ceiling: 1200
Heat Index: 30°   Visibility: 7mi
Dew Point: 30°   Wind: 0mph
Humidity: 99%   Direction: NA
Pressure: 29.91"   Gusts: NA
Location:  37.2292°N, 107.329°W
Report Text: KPSO 220455Z AUTO 00000KT 7SM BKN012 BKN023 OVC029 M01/M01 A2991 RMK AO2 T10101012
Loading
Personal Weather Stations






























Interactive Weather Map New forecast layout! Learn more

10-Day Weather Forecast

Advertisements
Track Severe Weather on mobile